Time;durP1;ratioP1;P1;durP2;ratioP2;P2;SDS_P1;SDS_P2;PMS_P1;PMS_P2;Temp;Humidity;BMP_temperature;BMP_pressure;BME280_temperature;BME280_humidity;BME280_pressure;Samples;Min_cycle;Max_cycle;Signal;HPM_P1;HPM_P2
2022/12/24 00:00:57;;;;;;;5.03;0.75;;;10.00;99.90;;;;;;4973773;28;20050;-62
2022/12/24 00:03:24;;;;;;;1.10;1.00;;;9.90;99.90;;;;;;4971270;28;20551;-61
2022/12/24 00:05:51;;;;;;;1.70;1.00;;;9.90;99.90;;;;;;4973739;28;20408;-62
2022/12/24 00:08:18;;;;;;;3.38;1.25;;;9.90;99.90;;;;;;4971077;28;20620;-62
2022/12/24 00:10:51;;;;;;;2.53;0.85;;;9.90;99.90;;;;;;4971660;28;20088;-62
2022/12/24 00:13:19;;;;;;;0.75;0.70;;;9.80;99.90;;;;;;4983962;28;20532;-62
2022/12/24 00:15:46;;;;;;;1.77;0.80;;;9.80;99.90;;;;;;4972326;28;20053;-63
2022/12/24 00:18:13;;;;;;;1.95;0.75;;;9.80;99.90;;;;;;4974516;28;20483;-62
2022/12/24 00:20:40;;;;;;;1.77;1.13;;;9.70;99.90;;;;;;4972742;28;20054;-62
2022/12/24 00:23:07;;;;;;;0.93;0.50;;;9.70;99.90;;;;;;4972724;28;20065;-62
2022/12/24 00:25:34;;;;;;;2.03;0.68;;;9.60;99.90;;;;;;4973694;28;20049;-62
2022/12/24 00:28:01;;;;;;;1.50;0.75;;;9.60;99.90;;;;;;4969991;28;20223;-62
2022/12/24 00:30:27;;;;;;;;;;;9.50;99.90;;;;;;4973746;28;20050;-62
2022/12/24 00:32:54;;;;;;;1.63;0.85;;;9.50;99.90;;;;;;4969430;28;19930;-62
2022/12/24 00:35:21;;;;;;;2.70;0.68;;;9.40;99.90;;;;;;4970334;28;20122;-62
2022/12/24 00:37:48;;;;;;;;;;;9.40;99.90;;;;;;4971146;28;20203;-63
2022/12/24 00:40:16;;;;;;;0.77;0.40;;;9.40;99.90;;;;;;4968959;28;20021;-64
2022/12/24 00:42:43;;;;;;;3.40;0.52;;;9.40;99.90;;;;;;4973788;28;20088;-62
2022/12/24 00:45:11;;;;;;;2.58;1.23;;;9.50;99.90;;;;;;4974012;28;20452;-63
2022/12/24 00:47:38;;;;;;;0.55;0.38;;;9.40;99.90;;;;;;4968805;28;20405;-62
2022/12/24 00:50:05;;;;;;;;;;;9.50;99.90;;;;;;4972893;28;20287;-62
2022/12/24 00:52:32;;;;;;;1.57;0.67;;;9.50;99.90;;;;;;4970184;28;20028;-62
2022/12/24 00:54:59;;;;;;;0.68;0.68;;;9.50;99.90;;;;;;4986202;28;20263;-63
2022/12/24 00:57:25;;;;;;;0.55;0.38;;;9.50;99.90;;;;;;4971931;28;20046;-62
2022/12/24 00:59:52;;;;;;;1.15;0.30;;;9.50;99.90;;;;;;4971108;28;20046;-62
2022/12/24 01:02:19;;;;;;;0.70;0.50;;;9.50;99.90;;;;;;4970007;28;20050;-62
2022/12/24 01:07:31;;;;;;;0.50;0.40;;;9.50;99.90;;;;;;4969396;28;20424;-62
2022/12/24 01:09:58;;;;;;;3.47;0.55;;;9.50;99.90;;;;;;4970717;28;20475;-62
2022/12/24 01:12:25;;;;;;;2.67;0.77;;;9.60;99.90;;;;;;4972130;28;20141;-62
2022/12/24 01:14:51;;;;;;;1.88;0.47;;;9.60;99.90;;;;;;4969785;28;20181;-62
2022/12/24 01:17:18;;;;;;;0.80;0.60;;;9.70;99.90;;;;;;4970053;28;20467;-63
2022/12/24 01:19:45;;;;;;;4.15;0.88;;;9.70;99.90;;;;;;4971504;28;20078;-65
2022/12/24 01:22:12;;;;;;;0.40;0.40;;;9.80;99.90;;;;;;4974244;28;20335;-62
2022/12/24 01:24:42;;;;;;;2.03;0.45;;;9.80;99.90;;;;;;4969508;28;20487;-62
2022/12/24 01:27:09;;;;;;;2.80;0.55;;;9.90;99.90;;;;;;4973657;28;20055;-62
2022/12/24 01:29:36;;;;;;;1.85;0.70;;;9.90;99.90;;;;;;4972101;28;20050;-63
2022/12/24 01:32:02;;;;;;;;;;;9.90;99.90;;;;;;4969493;28;20050;-62
2022/12/24 01:34:29;;;;;;;1.45;0.45;;;9.80;99.90;;;;;;4969536;28;19932;-61
2022/12/24 01:36:56;;;;;;;2.50;1.17;;;9.80;99.90;;;;;;4971295;28;20056;-62
2022/12/24 01:39:23;;;;;;;2.08;0.45;;;9.80;99.90;;;;;;4968724;28;20529;-64
2022/12/24 01:44:41;;;;;;;5.93;0.95;;;9.80;99.90;;;;;;4968679;28;19933;-63
2022/12/24 01:47:13;;;;;;;2.90;1.15;;;9.80;99.90;;;;;;4971701;28;20124;-62
2022/12/24 01:49:46;;;;;;;0.60;0.40;;;9.80;99.90;;;;;;4967174;28;20114;-62
2022/12/24 01:52:18;;;;;;;1.83;0.50;;;9.80;99.90;;;;;;4970340;28;20048;-62
2022/12/24 01:54:57;;;;;;;2.10;0.80;;;9.80;99.90;;;;;;4972353;28;20050;-61
2022/12/24 01:57:30;;;;;;;3.58;0.80;;;9.80;99.90;;;;;;4971520;28;20304;-62
2022/12/24 02:00:01;;;;;;;3.00;0.88;;;9.80;99.90;;;;;;4974187;28;20447;-63
2022/12/24 02:02:32;;;;;;;5.93;1.08;;;9.80;99.90;;;;;;4969300;28;20500;-62
2022/12/24 02:05:21;;;;;;;2.00;1.23;;;9.80;99.90;;;;;;4985563;28;20050;-62
2022/12/24 02:07:48;;;;;;;3.17;0.73;;;9.80;99.90;;;;;;4968418;28;20131;-61
2022/12/24 02:10:15;;;;;;;3.10;1.08;;;9.80;99.90;;;;;;4966522;28;20460;-61
2022/12/24 02:12:43;;;;;;;2.15;0.60;;;9.80;99.90;;;;;;4969388;28;20078;-62
2022/12/24 02:15:14;;;;;;;1.52;0.80;;;9.80;99.90;;;;;;4973340;28;20081;-63
2022/12/24 02:18:07;;;;;;;1.85;0.73;;;9.80;99.90;;;;;;4971465;28;20574;-64
2022/12/24 02:21:08;;;;;;;1.88;0.73;;;9.80;99.90;;;;;;4968358;28;20366;-63
2022/12/24 02:23:56;;;;;;;23.25;1.67;;;9.80;99.90;;;;;;4959650;28;20475;-62
2022/12/24 02:26:36;;;;;;;1.10;0.60;;;9.80;99.90;;;;;;4974051;28;20531;-62
2022/12/24 02:29:38;;;;;;;5.65;0.85;;;9.70;99.90;;;;;;4971772;28;20221;-62
2022/12/24 02:32:13;;;;;;;1.90;1.02;;;9.70;99.90;;;;;;4970007;28;20062;-62
2022/12/24 02:34:45;;;;;;;2.25;0.65;;;9.70;99.90;;;;;;4971210;28;20042;-62
2022/12/24 02:37:26;;;;;;;3.78;0.73;;;9.70;99.90;;;;;;4974090;28;20084;-64
2022/12/24 02:39:53;;;;;;;1.55;0.70;;;9.70;99.90;;;;;;4976415;28;20054;-62
2022/12/24 02:42:25;;;;;;;4.72;0.77;;;9.60;99.90;;;;;;4973158;28;20046;-62
2022/12/24 02:45:02;;;;;;;2.65;0.68;;;9.60;99.90;;;;;;4974157;28;20486;-61
2022/12/24 02:47:30;;;;;;;1.25;0.75;;;9.60;99.90;;;;;;4972587;28;20394;-62
2022/12/24 02:50:02;;;;;;;3.95;0.80;;;9.60;99.90;;;;;;4973705;28;20249;-62
2022/12/24 02:52:38;;;;;;;1.10;0.60;;;9.50;99.90;;;;;;4973312;28;20112;-62
2022/12/24 02:55:11;;;;;;;1.17;0.60;;;9.50;99.90;;;;;;4974252;28;20133;-62
2022/12/24 02:57:53;;;;;;;1.90;0.90;;;9.50;99.90;;;;;;4973322;28;20507;-62
2022/12/24 03:00:22;;;;;;;3.55;0.90;;;9.40;99.90;;;;;;4973015;28;20434;-62
2022/12/24 03:03:09;;;;;;;1.70;0.60;;;9.40;99.90;;;;;;4972281;28;20050;-64
2022/12/24 03:05:59;;;;;;;2.53;0.52;;;9.30;99.90;;;;;;4975392;28;20054;-63
2022/12/24 03:08:49;;;;;;;0.57;0.55;;;9.30;99.90;;;;;;4978860;28;20573;-62
2022/12/24 03:11:17;;;;;;;1.80;0.60;;;9.30;99.90;;;;;;4971359;28;20294;-62
2022/12/24 03:13:45;;;;;;;3.30;0.50;;;9.20;99.90;;;;;;4976923;28;20153;-62
2022/12/24 03:16:16;;;;;;;1.45;0.65;;;9.10;99.90;;;;;;4974743;28;20098;-63
2022/12/24 03:18:46;;;;;;;6.68;0.95;;;9.10;99.90;;;;;;4972006;28;20133;-62
2022/12/24 03:21:19;;;;;;;0.88;0.50;;;9.20;99.90;;;;;;4973936;28;20551;-63
2022/12/24 03:23:46;;;;;;;2.88;0.95;;;9.20;99.90;;;;;;4970267;28;20721;-63
2022/12/24 03:26:17;;;;;;;4.07;0.60;;;9.20;99.90;;;;;;4973874;28;20042;-63
2022/12/24 03:28:45;;;;;;;2.70;0.73;;;9.10;99.90;;;;;;4972394;28;20790;-62
2022/12/24 03:31:12;;;;;;;3.40;1.05;;;9.10;99.90;;;;;;4972079;28;20046;-63
2022/12/24 03:33:39;;;;;;;1.63;0.60;;;9.10;99.90;;;;;;4975517;28;20428;-62
2022/12/24 03:36:06;;;;;;;;;;;9.00;99.90;;;;;;4971885;28;20473;-63
2022/12/24 03:38:33;;;;;;;0.67;0.50;;;9.00;99.90;;;;;;4976729;28;19995;-64
2022/12/24 03:41:01;;;;;;;0.40;0.40;;;8.90;99.90;;;;;;4972412;28;20145;-62
2022/12/24 03:43:28;;;;;;;1.30;0.30;;;9.00;99.90;;;;;;4971867;28;20057;-62
2022/12/24 03:45:55;;;;;;;3.13;0.50;;;8.90;99.90;;;;;;4973615;28;20131;-62
2022/12/24 03:48:21;;;;;;;;;;;8.90;99.90;;;;;;4973304;28;20246;-63
2022/12/24 03:50:57;;;;;;;0.63;0.40;;;8.90;99.90;;;;;;4973577;28;19932;-63
2022/12/24 03:53:24;;;;;;;0.68;0.55;;;8.80;99.90;;;;;;4971230;28;20411;-63
2022/12/24 03:55:51;;;;;;;;;;;8.80;99.90;;;;;;4973748;28;20042;-63
2022/12/24 03:58:17;;;;;;;2.83;0.50;;;8.80;99.90;;;;;;4969691;28;19925;-61
2022/12/24 04:00:44;;;;;;;0.52;0.32;;;8.80;99.90;;;;;;4969645;28;20046;-62
2022/12/24 04:03:11;;;;;;;0.30;0.30;;;8.80;99.90;;;;;;4986180;28;20061;-61
2022/12/24 04:05:38;;;;;;;0.85;0.40;;;8.80;99.90;;;;;;4974531;28;20121;-62
2022/12/24 04:08:04;;;;;;;0.35;0.30;;;8.80;99.90;;;;;;4971462;28;20201;-62
2022/12/24 04:10:31;;;;;;;;;;;8.80;99.90;;;;;;4971302;28;20039;-62
2022/12/24 04:12:58;;;;;;;0.30;0.30;;;8.80;99.90;;;;;;4971925;28;19969;-63
2022/12/24 04:15:25;;;;;;;0.65;0.50;;;8.80;99.90;;;;;;4971107;28;20152;-62
2022/12/24 04:17:51;;;;;;;1.90;0.30;;;8.70;99.90;;;;;;4971600;28;20157;-62
2022/12/24 04:20:18;;;;;;;1.17;0.55;;;8.70;99.90;;;;;;4974124;28;20278;-62
2022/12/24 04:22:45;;;;;;;;;;;8.70;99.90;;;;;;4972004;28;20276;-62
2022/12/24 04:25:11;;;;;;;3.20;0.50;;;8.60;99.90;;;;;;4973653;28;19926;-63
2022/12/24 04:27:38;;;;;;;;;;;8.60;99.90;;;;;;4974079;28;20042;-62
2022/12/24 04:30:05;;;;;;;0.75;0.50;;;8.60;99.90;;;;;;4971458;28;19925;-62
2022/12/24 04:32:32;;;;;;;0.32;0.30;;;8.50;99.90;;;;;;4969110;28;20096;-62
2022/12/24 04:34:59;;;;;;;0.98;0.40;;;8.50;99.90;;;;;;4969226;28;21010;-63
2022/12/24 04:37:25;;;;;;;0.50;0.50;;;8.40;99.90;;;;;;4971793;28;20324;-62
2022/12/24 04:39:52;;;;;;;0.90;0.30;;;8.40;99.90;;;;;;4968618;28;20601;-63
2022/12/24 04:42:19;;;;;;;0.95;0.30;;;8.40;99.90;;;;;;4972284;28;20452;-63
2022/12/24 04:44:45;;;;;;;0.90;0.60;;;8.30;99.90;;;;;;4972807;28;20050;-62
2022/12/24 04:47:12;;;;;;;1.20;0.80;;;8.30;99.90;;;;;;4972335;28;20101;-63
2022/12/24 04:49:39;;;;;;;;;;;8.20;99.90;;;;;;4975449;28;20060;-63
2022/12/24 04:52:05;;;;;;;5.30;1.45;;;8.20;99.90;;;;;;4972720;28;20411;-62
2022/12/24 04:54:32;;;;;;;0.98;0.68;;;8.20;99.90;;;;;;4972247;28;20042;-63
2022/12/24 04:56:59;;;;;;;;;;;8.10;99.90;;;;;;4969502;28;20400;-62
2022/12/24 04:59:25;;;;;;;3.30;0.80;;;8.10;99.90;;;;;;4972341;28;20259;-61
2022/12/24 05:01:52;;;;;;;2.65;0.50;;;8.10;99.90;;;;;;4968677;28;20046;-62
2022/12/24 05:04:19;;;;;;;1.38;0.70;;;8.00;99.90;;;;;;4968333;28;20161;-62
2022/12/24 05:06:46;;;;;;;2.50;0.80;;;8.00;99.90;;;;;;4972284;28;20382;-62
2022/12/24 05:09:12;;;;;;;2.50;0.60;;;8.00;99.90;;;;;;4970524;28;20571;-63
2022/12/24 05:11:39;;;;;;;1.65;0.60;;;7.90;99.90;;;;;;4970158;28;20050;-62
2022/12/24 05:14:06;;;;;;;1.42;0.75;;;7.80;99.90;;;;;;4972017;28;20053;-62
2022/12/24 05:16:32;;;;;;;1.65;0.82;;;7.80;99.90;;;;;;4971882;28;20370;-63
2022/12/24 05:18:59;;;;;;;2.47;0.70;;;7.80;99.90;;;;;;4971665;28;20054;-62
2022/12/24 05:21:26;;;;;;;;;;;7.70;99.90;;;;;;4972336;28;20050;-62
2022/12/24 05:26:50;;;;;;;2.92;0.50;;;7.70;99.90;;;;;;4967921;28;20378;-62
2022/12/24 05:29:17;;;;;;;2.88;0.70;;;7.70;99.90;;;;;;4970685;28;20050;-62
2022/12/24 05:31:45;;;;;;;2.05;0.90;;;7.60;99.90;;;;;;4972522;28;20042;-63
2022/12/24 05:34:13;;;;;;;1.65;0.60;;;7.60;99.90;;;;;;4971817;28;20658;-64
2022/12/24 05:36:42;;;;;;;1.25;0.50;;;7.60;99.90;;;;;;4971437;28;20187;-64
2022/12/24 05:39:14;;;;;;;1.45;0.70;;;7.50;99.90;;;;;;4969904;28;20161;-63
2022/12/24 05:41:42;;;;;;;1.95;0.80;;;7.50;99.90;;;;;;4969128;28;20128;-64
2022/12/24 05:44:09;;;;;;;0.80;0.73;;;7.50;99.90;;;;;;4973172;28;20050;-63
2022/12/24 05:46:35;;;;;;;;;;;7.50;99.90;;;;;;4969407;28;20121;-62
2022/12/24 05:49:02;;;;;;;1.42;0.70;;;7.50;99.90;;;;;;4968826;28;20331;-63
2022/12/24 05:51:29;;;;;;;;;;;7.40;99.90;;;;;;4969221;28;20056;-63
2022/12/24 05:53:55;;;;;;;1.25;0.60;;;7.40;99.90;;;;;;4972494;28;20138;-62
2022/12/24 05:56:23;;;;;;;;;;;7.40;99.90;;;;;;4969066;28;20054;-60
2022/12/24 05:58:51;;;;;;;1.83;0.68;;;7.40;99.90;;;;;;4971831;28;20363;-62
2022/12/24 06:01:18;;;;;;;1.20;0.55;;;7.40;99.90;;;;;;4968002;28;20129;-61
2022/12/24 06:03:45;;;;;;;1.08;0.60;;;7.30;99.90;;;;;;4966505;28;20344;-63
2022/12/24 06:06:17;;;;;;;2.55;0.70;;;7.40;99.90;;;;;;4970871;28;20053;-63
2022/12/24 06:08:45;;;;;;;1.02;0.43;;;7.40;99.90;;;;;;4969489;28;20049;-63
2022/12/24 06:11:14;;;;;;;2.08;0.65;;;7.40;99.90;;;;;;4971590;28;20495;-63
2022/12/24 06:13:42;;;;;;;0.80;0.77;;;7.30;99.90;;;;;;4969828;28;20137;-63
2022/12/24 06:16:12;;;;;;;2.15;0.57;;;7.30;99.90;;;;;;4970753;28;20078;-63
2022/12/24 06:18:39;;;;;;;0.85;0.60;;;7.30;99.90;;;;;;4966204;28;20049;-63
2022/12/24 06:21:06;;;;;;;1.95;0.70;;;7.30;99.90;;;;;;4969200;28;20527;-63
2022/12/24 06:23:36;;;;;;;4.75;0.85;;;7.20;99.90;;;;;;4972661;28;20046;-63
2022/12/24 06:26:04;;;;;;;4.10;0.80;;;7.20;99.90;;;;;;4970124;28;20042;-63
2022/12/24 06:28:33;;;;;;;2.97;0.80;;;7.20;99.90;;;;;;4969425;28;20300;-63
2022/12/24 06:31:01;;;;;;;1.27;0.40;;;7.10;99.90;;;;;;4970123;28;20133;-63
2022/12/24 06:33:30;;;;;;;2.78;0.82;;;7.10;99.90;;;;;;4969269;28;20423;-63
2022/12/24 06:35:57;;;;;;;1.63;0.60;;;7.00;99.90;;;;;;4970485;28;20348;-63
2022/12/24 06:38:24;;;;;;;;;;;7.00;99.90;;;;;;4967796;28;20162;-64
2022/12/24 06:40:50;;;;;;;1.95;0.50;;;7.00;99.90;;;;;;4968330;28;20167;-63
2022/12/24 06:43:17;;;;;;;;;;;6.90;99.90;;;;;;4969132;28;20531;-63
2022/12/24 06:45:46;;;;;;;3.58;0.82;;;6.90;99.90;;;;;;4984313;28;20301;-62
2022/12/24 06:48:14;;;;;;;1.02;0.80;;;6.90;99.90;;;;;;4969598;28;20204;-63
2022/12/24 06:50:41;;;;;;;2.50;0.68;;;6.90;99.90;;;;;;4969672;28;20145;-62
2022/12/24 06:53:08;;;;;;;1.20;0.70;;;6.80;99.90;;;;;;4971370;28;20049;-63
2022/12/24 06:55:35;;;;;;;1.50;0.55;;;6.80;99.90;;;;;;4969395;28;20145;-63
2022/12/24 06:58:03;;;;;;;1.73;0.82;;;6.80;99.90;;;;;;4973303;28;20125;-63
2022/12/24 07:00:29;;;;;;;1.25;0.80;;;6.80;99.90;;;;;;4971685;28;20046;-63
2022/12/24 07:02:57;;;;;;;3.55;0.75;;;6.80;99.90;;;;;;4968880;28;20526;-63
2022/12/24 07:05:24;;;;;;;5.38;0.85;;;6.80;99.90;;;;;;4971107;28;20104;-63
2022/12/24 07:07:51;;;;;;;2.05;0.95;;;6.70;99.90;;;;;;4970770;28;20495;-63
2022/12/24 07:10:18;;;;;;;;;;;6.70;99.90;;;;;;4972464;28;20053;-63
2022/12/24 07:12:46;;;;;;;1.98;0.80;;;6.70;99.90;;;;;;4973177;28;19983;-64
2022/12/24 07:15:14;;;;;;;0.65;0.65;;;6.70;99.90;;;;;;4968431;28;20806;-63
2022/12/24 07:17:40;;;;;;;1.77;0.70;;;6.70;99.90;;;;;;4975411;28;20124;-61
2022/12/24 07:20:09;;;;;;;;;;;6.70;99.90;;;;;;4976073;28;20153;-60
2022/12/24 07:22:36;;;;;;;2.08;0.73;;;6.70;99.90;;;;;;4975374;28;20020;-49
2022/12/24 07:25:02;;;;;;;;;;;6.70;99.90;;;;;;4971441;28;20046;-50
2022/12/24 07:27:29;;;;;;;2.40;0.80;;;6.70;99.90;;;;;;4973193;28;19932;-47
2022/12/24 07:29:56;;;;;;;1.20;0.50;;;6.70;99.90;;;;;;4977211;28;20271;-51
2022/12/24 07:32:23;;;;;;;1.27;0.50;;;6.70;99.90;;;;;;4974284;28;20049;-48
2022/12/24 07:34:49;;;;;;;1.60;0.75;;;6.70;99.90;;;;;;4972714;28;20054;-50
2022/12/24 07:37:16;;;;;;;7.13;0.50;;;6.70;99.90;;;;;;4977825;28;20603;-50
2022/12/24 07:39:42;;;;;;;3.42;0.80;;;6.70;99.90;;;;;;4971685;28;20524;-48
2022/12/24 07:42:09;;;;;;;2.17;0.52;;;6.70;99.90;;;;;;4973932;28;20065;-48
2022/12/24 07:44:36;;;;;;;;;;;6.70;99.90;;;;;;4975588;28;20052;-49
2022/12/24 07:47:03;;;;;;;2.08;0.73;;;6.70;99.90;;;;;;4969654;28;19931;-51
2022/12/24 07:49:29;;;;;;;;;;;6.70;99.90;;;;;;4972405;28;20626;-51
2022/12/24 07:51:56;;;;;;;0.30;0.30;;;6.70;99.90;;;;;;4971952;28;20225;-50
2022/12/24 07:54:23;;;;;;;2.25;0.70;;;6.70;99.90;;;;;;4974325;28;20133;-52
2022/12/24 07:56:50;;;;;;;1.85;0.60;;;6.70;99.90;;;;;;4971907;28;20161;-50
2022/12/24 07:59:17;;;;;;;0.57;0.30;;;6.70;99.90;;;;;;4975429;28;20137;-49
2022/12/24 08:01:44;;;;;;;;;;;6.70;99.90;;;;;;4975825;28;20664;-51
2022/12/24 08:04:11;;;;;;;1.88;0.63;;;6.70;99.90;;;;;;4990889;28;19926;-51
2022/12/24 08:06:38;;;;;;;9.18;1.05;;;6.70;99.90;;;;;;4972641;28;20046;-58
2022/12/24 08:09:05;;;;;;;1.48;0.90;;;6.70;99.90;;;;;;4970585;28;20042;-52
2022/12/24 08:11:32;;;;;;;0.60;0.60;;;6.60;99.90;;;;;;4971885;28;20610;-51
2022/12/24 08:13:59;;;;;;;;;;;6.60;99.90;;;;;;4971754;28;20060;-51
2022/12/24 08:16:26;;;;;;;2.72;0.88;;;6.60;99.90;;;;;;4986681;28;19925;-49
2022/12/24 08:18:52;;;;;;;1.38;0.55;;;6.60;99.90;;;;;;4971924;28;20576;-52
2022/12/24 08:21:19;;;;;;;3.08;1.05;;;6.60;99.90;;;;;;4971796;28;20054;-55
2022/12/24 08:23:46;;;;;;;3.30;0.93;;;6.60;99.90;;;;;;4969551;28;20165;-54
2022/12/24 08:26:13;;;;;;;0.77;0.68;;;6.60;99.90;;;;;;4972186;28;20480;-55
2022/12/24 08:28:40;;;;;;;0.95;0.60;;;6.60;99.90;;;;;;4971275;28;20464;-58
2022/12/24 08:31:06;;;;;;;;;;;6.60;99.90;;;;;;4971859;28;20080;-54
2022/12/24 08:33:33;;;;;;;1.15;0.50;;;6.60;99.90;;;;;;4972171;28;19985;-55
2022/12/24 08:36:01;;;;;;;0.88;0.35;;;6.60;99.90;;;;;;4970808;28;20056;-55
2022/12/24 08:38:28;;;;;;;0.52;0.50;;;6.60;99.90;;;;;;4971821;28;20284;-55
2022/12/24 08:40:55;;;;;;;1.65;0.50;;;6.60;99.90;;;;;;4970838;28;20730;-54
2022/12/24 08:43:24;;;;;;;;;;;6.60;99.90;;;;;;4971330;28;20072;-54
2022/12/24 08:45:51;;;;;;;1.35;0.55;;;6.60;99.90;;;;;;4986430;28;19925;-56
2022/12/24 08:48:18;;;;;;;1.42;1.15;;;6.60;99.90;;;;;;4970252;28;20370;-52
2022/12/24 08:50:44;;;;;;;;;;;6.60;99.90;;;;;;4973970;28;20073;-53
2022/12/24 08:53:12;;;;;;;0.47;0.47;;;6.60;99.90;;;;;;4938336;28;20346;-50
2022/12/24 08:55:39;;;;;;;1.08;0.60;;;6.60;99.90;;;;;;4957841;28;20047;-55
2022/12/24 08:58:05;;;;;;;1.70;0.80;;;6.60;99.90;;;;;;4957162;28;20508;-53
2022/12/24 09:00:33;;;;;;;1.30;0.50;;;6.60;99.90;;;;;;4968558;28;20045;-52
2022/12/24 09:03:00;;;;;;;0.47;0.47;;;6.60;99.90;;;;;;4971392;28;20761;-53
2022/12/24 09:05:27;;;;;;;1.38;0.30;;;6.60;99.90;;;;;;4972986;28;20064;-53
2022/12/24 09:07:54;;;;;;;0.60;0.60;;;6.70;99.90;;;;;;4967640;28;20061;-59
2022/12/24 09:10:21;;;;;;;;;;;6.60;99.90;;;;;;4970490;28;20053;-53
2022/12/24 09:12:48;;;;;;;0.55;0.40;;;6.70;99.90;;;;;;4970509;28;19926;-51
2022/12/24 09:15:15;;;;;;;;;;;6.70;99.90;;;;;;4973517;28;20332;-51
2022/12/24 09:17:42;;;;;;;0.40;0.30;;;6.70;99.90;;;;;;4985922;28;19929;-51
2022/12/24 09:20:09;;;;;;;1.15;0.50;;;6.60;99.90;;;;;;4968046;28;20062;-50
2022/12/24 09:22:38;;;;;;;3.55;0.55;;;6.60;99.90;;;;;;4971421;28;20054;-50
2022/12/24 09:25:06;;;;;;;0.70;0.20;;;6.60;99.90;;;;;;4966659;28;20050;-51
2022/12/24 09:27:33;;;;;;;2.20;0.20;;;6.60;99.90;;;;;;4972737;28;20448;-52
2022/12/24 09:29:59;;;;;;;3.22;0.65;;;6.60;99.90;;;;;;4971647;28;20042;-52
2022/12/24 09:32:26;;;;;;;0.50;0.50;;;6.60;99.90;;;;;;4970496;28;20053;-52
2022/12/24 09:34:53;;;;;;;;;;;6.60;99.90;;;;;;4974981;28;20785;-50
2022/12/24 09:37:19;;;;;;;1.00;0.47;;;6.60;99.90;;;;;;4987688;28;20044;-54
2022/12/24 09:39:46;;;;;;;0.55;0.50;;;6.60;99.90;;;;;;4973727;28;20361;-51
2022/12/24 09:42:16;;;;;;;;;;;6.60;99.90;;;;;;4968845;28;20050;-50
2022/12/24 09:44:46;;;;;;;0.52;0.50;;;6.70;99.90;;;;;;4970027;28;20326;-49
2022/12/24 09:47:24;;;;;;;1.45;0.85;;;6.70;99.90;;;;;;4970514;28;20324;-50
2022/12/24 09:49:55;;;;;;;0.75;0.47;;;6.70;99.90;;;;;;4968566;28;20046;-52
2022/12/24 09:52:39;;;;;;;0.20;0.20;;;6.70;99.90;;;;;;4973219;28;20045;-54
2022/12/24 09:55:24;;;;;;;0.40;0.40;;;6.70;99.90;;;;;;4971844;28;20046;-55
2022/12/24 09:57:53;;;;;;;0.40;0.30;;;6.70;99.90;;;;;;4967474;28;20414;-49
2022/12/24 10:00:24;;;;;;;0.70;0.40;;;6.70;99.90;;;;;;4970361;28;20395;-52
2022/12/24 10:02:51;;;;;;;0.80;0.80;;;6.70;99.90;;;;;;4971221;28;20791;-50
2022/12/24 10:05:42;;;;;;;1.52;0.30;;;6.70;99.90;;;;;;4972778;28;20049;-48
2022/12/24 10:08:27;;;;;;;0.40;0.30;;;6.70;99.90;;;;;;4969336;28;20053;-49
2022/12/24 10:11:10;;;;;;;1.40;0.40;;;6.80;99.90;;;;;;4968480;28;20053;-50
2022/12/24 10:13:45;;;;;;;0.47;0.47;;;6.80;99.90;;;;;;4968772;28;20129;-48
2022/12/24 10:16:37;;;;;;;2.03;0.60;;;6.80;99.90;;;;;;4968580;28;20054;-57
2022/12/24 10:19:27;;;;;;;0.40;0.40;;;6.80;99.90;;;;;;4971690;28;20141;-52
2022/12/24 10:22:06;;;;;;;0.45;0.45;;;6.80;99.90;;;;;;4969581;28;20082;-47
2022/12/24 10:24:50;;;;;;;2.75;0.57;;;6.80;99.90;;;;;;4969095;28;20057;-48
2022/12/24 10:27:20;;;;;;;0.73;0.47;;;6.90;99.90;;;;;;4965832;28;20141;-49
2022/12/24 10:29:53;;;;;;;0.43;0.40;;;6.80;99.90;;;;;;4982360;28;20076;-48
2022/12/24 10:32:23;;;;;;;1.00;0.43;;;6.90;99.90;;;;;;4968804;28;20520;-48
2022/12/24 10:35:13;;;;;;;1.02;0.40;;;6.90;99.90;;;;;;4969918;28;20082;-51
2022/12/24 10:37:46;;;;;;;0.40;0.40;;;6.90;99.90;;;;;;4970768;28;20050;-49
2022/12/24 10:40:24;;;;;;;0.17;0.17;;;6.90;99.90;;;;;;4968964;28;20092;-48
2022/12/24 10:42:51;;;;;;;0.45;0.30;;;6.90;99.90;;;;;;4967409;28;20127;-49
2022/12/24 10:45:22;;;;;;;0.43;0.20;;;6.90;99.90;;;;;;4969009;28;20499;-49
2022/12/24 10:47:54;;;;;;;0.40;0.40;;;6.90;99.90;;;;;;4972212;28;20288;-48
2022/12/24 10:50:30;;;;;;;0.47;0.47;;;7.00;99.90;;;;;;4971713;28;20584;-50
2022/12/24 10:53:04;;;;;;;0.63;0.60;;;7.00;99.90;;;;;;4973990;28;20727;-51
2022/12/24 10:55:31;;;;;;;0.95;0.40;;;7.00;99.90;;;;;;4973296;28;20469;-48
2022/12/24 10:58:04;;;;;;;0.50;0.50;;;7.00;99.90;;;;;;4989505;28;20078;-49
2022/12/24 11:00:31;;;;;;;1.52;0.52;;;7.00;99.90;;;;;;4972037;28;20965;-49
2022/12/24 11:03:27;;;;;;;0.30;0.20;;;7.00;99.90;;;;;;4972096;28;20046;-49
2022/12/24 11:06:05;;;;;;;0.32;0.32;;;7.00;99.90;;;;;;4970208;28;20137;-50
2022/12/24 11:08:34;;;;;;;0.38;0.30;;;6.90;99.90;;;;;;4970806;28;20050;-48
2022/12/24 11:11:04;;;;;;;0.50;0.50;;;6.90;99.90;;;;;;4973596;28;20297;-49
2022/12/24 11:13:38;;;;;;;0.57;0.57;;;6.90;99.90;;;;;;4975107;28;20416;-49
2022/12/24 11:16:13;;;;;;;0.55;0.50;;;6.90;99.90;;;;;;4971639;28;20046;-49
2022/12/24 11:18:51;;;;;;;0.40;0.40;;;7.00;99.90;;;;;;4972488;28;20054;-49
2022/12/24 11:21:33;;;;;;;0.60;0.45;;;6.90;99.90;;;;;;4973584;28;20038;-49
2022/12/24 11:24:20;;;;;;;0.52;0.50;;;6.90;99.90;;;;;;4974979;28;20141;-51
2022/12/24 11:26:47;;;;;;;0.32;0.32;;;6.90;99.90;;;;;;4976051;28;20088;-50
2022/12/24 11:29:27;;;;;;;0.50;0.40;;;6.90;99.90;;;;;;4970602;28;20054;-53
2022/12/24 11:32:17;;;;;;;0.40;0.40;;;6.90;99.90;;;;;;4972600;28;20062;-50
2022/12/24 11:34:44;;;;;;;0.40;0.40;;;6.90;99.90;;;;;;4971140;28;20370;-52
2022/12/24 11:37:22;;;;;;;3.03;0.43;;;6.90;99.90;;;;;;4969876;28;20058;-50
2022/12/24 11:39:54;;;;;;;1.50;1.13;;;6.90;99.90;;;;;;4971783;28;20061;-52
2022/12/24 11:42:36;;;;;;;1.00;0.80;;;6.90;99.90;;;;;;4971199;28;20263;-51
2022/12/24 11:45:22;;;;;;;2.30;0.52;;;6.90;99.90;;;;;;4971004;28;20326;-51
2022/12/24 11:47:50;;;;;;;0.85;0.80;;;6.90;99.90;;;;;;4971261;28;20046;-52
2022/12/24 11:50:27;;;;;;;5.03;1.30;;;6.90;99.90;;;;;;4972151;28;20564;-52
2022/12/24 11:53:03;;;;;;;4.85;1.30;;;6.90;99.90;;;;;;4972422;28;20108;-52
2022/12/24 11:56:01;;;;;;;3.67;2.10;;;6.90;99.90;;;;;;4988210;28;20122;-53
2022/12/24 11:58:38;;;;;;;4.93;1.42;;;6.90;99.90;;;;;;4981730;28;20145;-51
2022/12/24 12:01:26;;;;;;;7.95;2.17;;;6.90;99.90;;;;;;4985634;28;20508;-53
2022/12/24 12:03:56;;;;;;;;;;;6.90;99.90;;;;;;4988062;28;20042;-52
2022/12/24 12:06:35;;;;;;;3.63;1.70;;;6.90;99.90;;;;;;4973404;28;19925;-52
2022/12/24 12:09:09;;;;;;;5.05;1.67;;;6.90;99.90;;;;;;4975113;28;20417;-50
2022/12/24 12:11:39;;;;;;;4.78;1.35;;;6.90;99.90;;;;;;4974624;28;20481;-50
2022/12/24 12:14:13;;;;;;;10.75;2.08;;;6.90;99.90;;;;;;4971965;28;20799;-53
2022/12/24 12:16:59;;;;;;;5.03;1.75;;;7.00;99.90;;;;;;4973097;28;20412;-51
2022/12/24 12:19:55;;;;;;;3.83;1.52;;;7.00;99.90;;;;;;4971193;28;20058;-51
2022/12/24 12:22:44;;;;;;;5.07;1.40;;;7.10;99.90;;;;;;4987018;28;20493;-50
2022/12/24 12:25:20;;;;;;;3.53;1.00;;;7.10;99.90;;;;;;4971885;28;20611;-51
2022/12/24 12:27:51;;;;;;;1.77;0.90;;;7.20;99.90;;;;;;4970567;28;20042;-52
2022/12/24 12:30:20;;;;;;;1.58;0.98;;;7.20;99.90;;;;;;4970450;28;20105;-53
2022/12/24 12:33:03;;;;;;;1.02;0.60;;;7.30;99.90;;;;;;4972377;28;20050;-52
2022/12/24 12:35:37;;;;;;;0.30;0.30;;;7.30;99.90;;;;;;4972608;28;20104;-51
2022/12/24 12:38:08;;;;;;;0.40;0.40;;;7.30;99.90;;;;;;4985145;28;20093;-52
2022/12/24 12:40:54;;;;;;;0.98;0.77;;;7.30;99.90;;;;;;4971158;28;20495;-50
2022/12/24 12:43:21;;;;;;;0.77;0.55;;;7.30;99.90;;;;;;4971583;28;20465;-50
2022/12/24 12:46:02;;;;;;;2.92;0.90;;;7.40;99.90;;;;;;4966816;28;20064;-50
2022/12/24 12:48:44;;;;;;;0.85;0.47;;;7.40;99.90;;;;;;4970527;28;20076;-51
2022/12/24 12:51:29;;;;;;;0.77;0.52;;;7.40;99.90;;;;;;4971410;28;20074;-52
2022/12/24 12:54:14;;;;;;;0.50;0.47;;;7.40;99.90;;;;;;4972670;28;20045;-52
2022/12/24 12:56:45;;;;;;;1.92;0.55;;;7.40;99.90;;;;;;4968797;28;20046;-49
2022/12/24 12:59:32;;;;;;;0.57;0.57;;;7.40;99.90;;;;;;4968175;28;20046;-48
2022/12/24 13:02:11;;;;;;;2.17;0.47;;;7.40;99.90;;;;;;4972178;28;20061;-51
2022/12/24 13:05:22;;;;;;;1.45;0.75;;;7.40;99.90;;;;;;4966596;28;20042;-51
2022/12/24 13:08:15;;;;;;;1.65;0.35;;;7.40;99.90;;;;;;4969291;28;20050;-51
2022/12/24 13:11:06;;;;;;;0.30;0.30;;;7.40;99.90;;;;;;4968907;28;20093;-53
2022/12/24 13:13:47;;;;;;;0.55;0.35;;;7.40;99.90;;;;;;4970185;28;20057;-51
2022/12/24 13:16:38;;;;;;;0.45;0.43;;;7.50;99.90;;;;;;4972544;28;20038;-49
2022/12/24 13:19:28;;;;;;;1.17;0.65;;;7.50;99.90;;;;;;4970322;28;20030;-50
2022/12/24 13:22:04;;;;;;;;;;;7.50;99.90;;;;;;4971746;28;20694;-53
2022/12/24 13:24:31;;;;;;;3.50;3.03;;;7.50;99.90;;;;;;4970158;28;19925;-52
2022/12/24 13:27:18;;;;;;;2.33;2.13;;;7.50;99.90;;;;;;4973213;28;20376;-53
2022/12/24 13:30:26;;;;;;;1.25;0.90;;;7.60;99.90;;;;;;4969680;28;20034;-56
2022/12/24 13:32:54;;;;;;;1.95;1.17;;;7.60;99.90;;;;;;4968960;28;20050;-54
2022/12/24 13:35:20;;;;;;;0.88;0.50;;;7.60;99.90;;;;;;4969437;28;20038;-54